Time;durP1;ratioP1;P1;durP2;ratioP2;P2;SDS_P1;SDS_P2;PMS_P1;PMS_P2;Temp;Humidity;BMP_temperature;BMP_pressure;BME280_temperature;BME280_humidity;BME280_pressure;Samples;Min_cycle;Max_cycle;Signal;HPM_P1;HPM_P2
2022/01/23 00:00:51;;;;;;;33.33;16.73;;;;;;;-8.49;100.00;100960.44;1735183;81;21532;-90
2022/01/23 00:03:19;;;;;;;47.62;18.50;;;;;;;-8.57;100.00;100957.82;1758191;80;21479;-88
2022/01/23 00:05:49;;;;;;;36.85;16.73;;;;;;;-8.66;100.00;100954.81;1758311;80;21159;-88
2022/01/23 00:08:24;;;;;;;40.80;17.17;;;;;;;-8.83;100.00;100964.75;1737289;81;21081;-87
2022/01/23 00:10:51;;;;;;;30.15;14.18;;;;;;;-8.92;100.00;100973.48;1756942;81;21528;-89
2022/01/23 00:13:28;;;;;;;33.25;15.58;;;;;;;-8.95;100.00;100969.26;1757990;81;21454;-89
2022/01/23 00:18:41;;;;;;;35.52;16.12;;;;;;;-8.95;100.00;100962.08;1757673;81;21158;-90
2022/01/23 00:21:08;;;;;;;42.50;18.05;;;;;;;-8.97;100.00;100955.77;1757739;80;20994;-89
2022/01/23 00:31:39;;;;;;;39.98;19.07;;;;;;;-8.95;100.00;100965.47;1737060;81;21141;-89
2022/01/23 00:34:06;;;;;;;46.53;20.23;;;;;;;-8.91;100.00;100963.83;1757796;81;20994;-88
2022/01/23 00:36:35;;;;;;;54.25;21.57;;;;;;;-8.91;100.00;100974.75;1757476;80;20990;-88
2022/01/23 00:39:03;;;;;;;50.35;18.75;;;;;;;-8.89;100.00;100975.63;1757901;80;21006;-87
2022/01/23 00:41:30;;;;;;;41.10;17.60;;;;;;;-8.76;100.00;100971.95;1737108;81;21049;-88
2022/01/23 00:43:57;;;;;;;46.83;21.10;;;;;;;-8.59;100.00;100970.45;1757955;81;21124;-88
2022/01/23 00:46:32;;;;;;;50.75;22.60;;;;;;;-8.45;100.00;100963.40;1737121;81;21073;-88
2022/01/23 00:51:32;;;;;;;38.25;17.37;;;;;;;-8.43;100.00;100973.08;1757652;80;21030;-90
2022/01/23 00:54:03;;;;;;;49.35;20.00;;;;;;;-8.49;100.00;100970.53;1758027;81;21064;-88
2022/01/23 00:56:30;;;;;;;;;;;;;;;-8.57;100.00;100968.79;1760348;80;21201;-87
2022/01/23 00:58:57;;;;;;;56.90;23.50;;;;;;;-8.60;100.00;100958.64;1757797;80;20152;-89
2022/01/23 01:01:24;;;;;;;43.08;18.70;;;;;;;-8.62;100.00;100955.28;1757712;80;21602;-89
2022/01/23 01:03:52;;;;;;;52.60;23.73;;;;;;;-8.69;100.00;100956.45;1738650;81;21428;-88
2022/01/23 01:06:20;;;;;;;62.60;24.60;;;;;;;-8.83;100.00;100964.75;1736991;81;21057;-90
2022/01/23 01:08:49;;;;;;;54.75;24.43;;;;;;;-8.90;100.00;100972.66;1757938;81;21126;-89
2022/01/23 01:11:54;;;;;;;53.23;22.32;;;;;;;-8.93;100.00;100984.41;1734609;81;21709;-88
2022/01/23 01:30:32;;;;;;;58.85;23.05;;;;;;;-9.35;100.00;100981.41;1757682;80;21010;-88
2022/01/23 01:35:27;;;;;;;66.35;24.35;;;;;;;-9.27;100.00;100994.09;1757338;81;21194;-90
2022/01/23 01:37:51;;;;;;;77.55;28.95;;;;;;;-9.31;100.00;100991.12;1754804;81;21069;-87
2022/01/23 01:40:20;;;;;;;101.97;40.43;;;;;;;-9.24;100.00;100991.62;1757986;81;21037;-88
2022/01/23 01:42:48;;;;;;;81.55;30.85;;;;;;;-9.27;100.00;100986.13;1757795;80;21073;-88
2022/01/23 01:45:24;;;;;;;82.25;32.45;;;;;;;-9.42;100.00;100980.89;1737051;81;21069;-87
2022/01/23 01:48:00;;;;;;;89.03;32.00;;;;;;;-9.40;100.00;100983.00;1757120;78;21158;-88
2022/01/23 01:50:30;;;;;;;74.42;28.35;;;;;;;-9.33;100.00;100982.67;1788470;80;22184;-90
2022/01/23 01:53:00;;;;;;;68.05;27.45;;;;;;;-9.35;100.00;100982.66;1786112;80;21006;-89
2022/01/23 01:55:38;;;;;;;61.40;23.32;;;;;;;-9.41;100.00;100980.04;1788701;79;21060;-90
2022/01/23 01:58:03;;;;;;;50.10;20.90;;;;;;;-9.42;100.00;100977.11;1786313;78;21043;-90
2022/01/23 02:00:53;;;;;;;50.90;21.02;;;;;;;-9.42;100.00;100974.16;1769235;78;21695;-91
2022/01/23 02:08:17;;;;;;;56.68;22.05;;;;;;;-9.45;100.00;100975.37;1732791;79;21042;-90
2022/01/23 02:08:52;;;;;;;75.67;29.85;;;;;;;-9.58;100.00;100983.22;1675239;85;21256;-88
2022/01/23 02:11:37;;;;;;;73.17;29.15;;;;;;;-9.65;100.00;100988.14;1640184;86;21074;-89
2022/01/23 02:14:11;;;;;;;57.65;23.35;;;;;;;-9.68;100.00;100988.95;1637543;84;21671;-90
2022/01/23 02:52:09;;;;;;;36.35;16.27;;;;;;;-9.48;100.00;101040.92;1672040;85;21501;-88
2022/01/23 02:54:52;;;;;;;46.28;19.70;;;;;;;-9.47;100.00;101037.58;1670784;85;21272;-88
2022/01/23 02:57:11;;;;;;;37.35;14.73;;;;;;;-9.49;100.00;101049.30;1669785;84;21663;-88
2022/01/23 02:59:40;;;;;;;38.33;15.58;;;;;;;-9.64;100.00;101052.44;1670413;84;21673;-87
2022/01/23 03:02:25;;;;;;;30.37;13.25;;;;;;;-9.64;100.00;101047.83;1666535;85;21113;-88
2022/01/23 03:04:52;;;;;;;27.82;12.85;;;;;;;-9.65;100.00;101051.16;1655677;85;21110;-87
2022/01/23 03:10:08;;;;;;;31.25;14.85;;;;;;;-9.51;100.00;101063.16;1669535;85;21036;-87
2022/01/23 03:13:39;;;;;;;36.90;14.83;;;;;;;-9.45;100.00;101067.42;1683417;85;21031;-87
2022/01/23 03:15:27;;;;;;;35.73;15.43;;;;;;;-9.43;100.00;101061.16;1666188;85;21031;-90
2022/01/23 03:29:02;;;;;;;26.23;12.43;;;;;;;-9.66;100.00;101085.63;1670327;85;21099;-89
2022/01/23 03:31:24;;;;;;;25.70;11.95;;;;;;;-9.68;100.00;101083.48;1666565;85;21544;-88
2022/01/23 03:33:50;;;;;;;39.67;16.45;;;;;;;-9.65;100.00;101088.56;1666660;84;21583;-89
2022/01/23 03:36:17;;;;;;;40.95;16.27;;;;;;;-9.65;100.00;101092.77;1665714;85;21062;-89
2022/01/23 03:38:45;;;;;;;35.50;15.40;;;;;;;-9.78;100.00;101096.36;1643106;85;21101;-88
2022/01/23 03:41:13;;;;;;;29.90;13.25;;;;;;;-9.94;100.00;101090.63;1671264;85;21647;-88
2022/01/23 03:43:41;;;;;;;29.12;12.35;;;;;;;-10.09;100.00;101087.00;1683924;85;21599;-88
2022/01/23 03:46:23;;;;;;;33.60;12.82;;;;;;;-10.17;100.00;101096.96;1674898;85;21180;-88
2022/01/23 03:51:22;;;;;;;27.48;12.90;;;;;;;-10.36;100.00;101092.00;1683685;85;21015;-88
2022/01/23 03:53:52;;;;;;;;;;;;;;;-10.42;100.00;101093.19;1677648;85;21067;-88
2022/01/23 03:56:22;;;;;;;27.50;12.03;;;;;;;-10.43;100.00;101095.66;1643803;85;20137;-89
2022/01/23 03:58:48;;;;;;;31.20;12.73;;;;;;;-10.50;100.00;101094.28;1680356;84;21160;-87
2022/01/23 04:01:17;;;;;;;27.85;12.78;;;;;;;-10.54;100.00;101085.00;1679633;85;21098;-88
2022/01/23 04:03:45;;;;;;;44.60;18.20;;;;;;;-10.58;100.00;101083.22;1657431;84;21092;-88
2022/01/23 04:06:12;;;;;;;37.58;16.55;;;;;;;-10.57;100.00;101089.95;1670075;84;21049;-89
2022/01/23 04:08:42;;;;;;;37.42;14.60;;;;;;;-10.59;100.00;101096.62;1670440;84;21030;-89
2022/01/23 04:11:09;;;;;;;32.05;13.28;;;;;;;-10.60;100.00;101096.17;1670789;84;21195;-90
2022/01/23 04:13:45;;;;;;;39.45;16.02;;;;;;;-10.67;100.00;101105.30;1672068;85;21669;-88
2022/01/23 04:32:25;;;;;;;35.45;15.63;;;;;;;-11.01;100.00;101104.98;1670213;85;21040;-89
2022/01/23 04:46:06;;;;;;;35.20;16.62;;;;;;;-10.97;100.00;101109.28;1668378;84;21078;-90
2022/01/23 04:49:05;;;;;;;57.50;22.42;;;;;;;-11.04;100.00;101112.48;1645126;84;21619;-90
2022/01/23 04:59:47;;;;;;;53.13;21.45;;;;;;;-11.12;100.00;101105.63;1620675;85;21157;-89
2022/01/23 05:05:07;;;;;;;48.85;19.98;;;;;;;-11.27;100.00;101120.38;1693824;83;21840;-89
2022/01/23 05:07:51;;;;;;;48.87;19.02;;;;;;;-11.30;100.00;101126.20;1672474;83;21410;-87
2022/01/23 05:10:23;;;;;;;58.17;24.55;;;;;;;-11.19;100.00;101122.66;1669927;84;21097;-88
2022/01/23 05:12:59;;;;;;;72.47;25.55;;;;;;;-11.12;100.00;101118.20;1630383;86;21556;-87
2022/01/23 05:15:26;;;;;;;53.45;22.95;;;;;;;-11.10;100.00;101124.13;1622024;86;21074;-88
2022/01/23 05:17:53;;;;;;;57.30;21.85;;;;;;;-11.06;100.00;101118.75;1650441;84;21738;-87
2022/01/23 05:20:25;;;;;;;67.12;26.93;;;;;;;-10.99;100.00;101129.39;1668365;84;21109;-88
2022/01/23 05:22:53;;;;;;;79.17;28.47;;;;;;;-10.97;100.00;101125.64;1642676;84;21599;-87
2022/01/23 05:25:28;;;;;;;60.83;22.70;;;;;;;-10.96;100.00;101134.89;1657894;84;21091;-88
2022/01/23 05:27:53;;;;;;;71.22;27.80;;;;;;;-10.96;100.00;101139.50;1679833;83;21137;-88
2022/01/23 05:30:22;;;;;;;58.52;21.68;;;;;;;-10.88;100.00;101138.81;1657550;86;21143;-89
2022/01/23 05:32:52;;;;;;;55.80;20.40;;;;;;;-10.84;100.00;101140.59;1656938;86;23078;-88
2022/01/23 05:35:22;;;;;;;60.67;23.27;;;;;;;-10.78;100.00;101135.68;1657586;86;21101;-90
2022/01/23 05:37:50;;;;;;;62.33;22.20;;;;;;;-10.13;100.00;101136.91;1661586;85;21140;-93
2022/01/23 05:40:24;;;;;;;70.30;23.02;;;;;;;-8.90;100.00;101142.22;1680641;85;21055;-93
2022/01/23 05:42:52;;;;;;;126.30;26.33;;;;;;;-8.35;100.00;101140.74;1660456;85;21109;-90
2022/01/23 05:45:20;;;;;;;92.10;26.40;;;;;;;-7.87;100.00;101145.44;1668260;85;21591;-91
2022/01/23 05:47:54;;;;;;;74.03;29.23;;;;;;;-7.30;100.00;101144.23;1642462;86;21117;-90
2022/01/23 05:50:24;;;;;;;65.80;29.80;;;;;;;-6.78;100.00;101152.14;1656743;85;21117;-90
2022/01/23 05:52:55;;;;;;;54.18;26.10;;;;;;;-6.84;100.00;101147.48;1681260;84;21057;-89
2022/01/23 05:55:30;;;;;;;56.73;24.07;;;;;;;-7.12;100.00;101150.27;1661499;84;21767;-90
2022/01/23 05:57:59;;;;;;;60.60;27.05;;;;;;;-7.45;100.00;101154.24;1640184;86;21089;-89
2022/01/23 06:00:28;;;;;;;57.08;23.22;;;;;;;-7.77;100.00;101164.93;1630909;86;21091;-89
2022/01/23 06:02:56;;;;;;;62.70;23.05;;;;;;;-8.08;100.00;101164.62;1656256;85;21138;-90
2022/01/23 06:05:26;;;;;;;56.73;24.05;;;;;;;-8.28;100.00;101160.19;1636339;86;21146;-85
2022/01/23 06:07:55;;;;;;;71.62;25.85;;;;;;;-8.15;100.00;101165.40;1681157;82;21568;-93
2022/01/23 06:10:25;;;;;;;67.20;24.65;;;;;;;-7.72;100.00;101168.34;1686247;84;21674;-86
2022/01/23 06:12:51;;;;;;;59.55;26.27;;;;;;;-7.02;100.00;101169.75;1697570;83;21129;-89
2022/01/23 06:15:19;;;;;;;54.65;24.20;;;;;;;-6.78;100.00;101174.53;1689115;83;21026;-88
2022/01/23 06:17:47;;;;;;;51.63;24.30;;;;;;;-6.97;100.00;101178.21;1646462;85;21333;-88
2022/01/23 06:20:32;;;;;;;44.30;20.30;;;;;;;-7.27;100.00;101181.37;1677886;84;21930;-88
2022/01/23 06:23:19;;;;;;;50.70;22.00;;;;;;;-7.60;100.00;101192.90;1699789;84;21050;-90
2022/01/23 06:26:00;;;;;;;51.28;22.02;;;;;;;-7.99;100.00;101193.80;1697061;84;21508;-88
2022/01/23 06:28:46;;;;;;;45.50;21.95;;;;;;;-8.36;100.00;101196.31;1696572;83;21047;-88
2022/01/23 06:31:13;;;;;;;52.03;22.35;;;;;;;-8.60;100.00;101201.09;1695762;83;21038;-88
2022/01/23 06:33:40;;;;;;;46.92;20.77;;;;;;;-8.75;100.00;101202.16;1699871;83;21133;-88
2022/01/23 06:36:08;;;;;;;50.70;22.27;;;;;;;-8.84;100.00;101204.55;1689757;83;21085;-86
2022/01/23 06:38:38;;;;;;;68.85;31.50;;;;;;;-8.90;100.00;101204.90;1684240;83;21027;-87
2022/01/23 06:41:06;;;;;;;60.98;25.17;;;;;;;-8.93;100.00;101207.37;1683830;85;21639;-86
2022/01/23 06:43:36;;;;;;;58.25;25.62;;;;;;;-8.94;100.00;101210.75;1673659;84;21027;-90
2022/01/23 06:46:05;;;;;;;69.12;30.32;;;;;;;-8.93;100.00;101211.16;1684123;83;21125;-87
2022/01/23 06:48:35;;;;;;;72.65;31.93;;;;;;;-8.92;100.00;101210.77;1703117;83;21591;-88
2022/01/23 06:51:03;;;;;;;72.72;27.87;;;;;;;-8.94;100.00;101217.45;1644509;85;21027;-87
2022/01/23 06:53:38;;;;;;;84.83;35.28;;;;;;;-8.93;100.00;101225.03;1683268;83;21604;-87
2022/01/23 06:56:11;;;;;;;85.22;36.15;;;;;;;-8.93;100.00;101229.25;1668618;85;21011;-88
2022/01/23 06:58:50;;;;;;;71.67;30.12;;;;;;;-8.93;100.00;101238.92;1635326;86;21177;-87
2022/01/23 07:01:32;;;;;;;;;;;;;;;;;;;;;
2022/01/23 07:04:15;;;;;;;64.72;26.55;;;;;;;-8.91;100.00;101249.90;1614631;86;21048;-87
2022/01/23 07:06:54;;;;;;;73.95;29.30;;;;;;;-8.89;100.00;101245.73;1638997;87;21599;-88
2022/01/23 07:09:43;;;;;;;65.70;25.95;;;;;;;-8.92;100.00;101236.84;1676386;85;21604;-88
2022/01/23 07:12:26;;;;;;;69.45;29.07;;;;;;;-8.94;100.00;101238.52;1675907;84;21527;-88
2022/01/23 07:14:53;;;;;;;271.95;78.75;;;;;;;-8.95;100.00;101252.35;1669032;85;21564;-87
2022/01/23 07:17:22;;;;;;;375.20;95.45;;;;;;;-8.95;100.00;101252.35;1669813;84;21133;-88
2022/01/23 07:19:51;;;;;;;232.50;61.05;;;;;;;-8.91;100.00;101254.95;1669451;85;21161;-88
2022/01/23 07:22:20;;;;;;;157.18;49.55;;;;;;;-8.87;100.00;101250.80;1669424;85;21043;-88
2022/01/23 07:24:47;;;;;;;133.12;44.13;;;;;;;-8.83;100.00;101253.81;1669130;86;21137;-88
2022/01/23 07:27:20;;;;;;;94.28;33.98;;;;;;;-8.78;100.00;101260.20;1669551;86;21615;-88
2022/01/23 07:29:48;;;;;;;82.10;33.33;;;;;;;-8.72;100.00;101265.34;1665872;86;21190;-89
2022/01/23 07:32:15;;;;;;;80.40;31.73;;;;;;;-8.60;100.00;101270.98;1648041;86;21075;-88
2022/01/23 07:34:42;;;;;;;74.95;32.98;;;;;;;-8.47;100.00;101265.69;1669154;86;21024;-88
2022/01/23 07:37:12;;;;;;;64.32;28.17;;;;;;;-8.31;100.00;101270.48;1669545;85;21133;-88
2022/01/23 07:39:42;;;;;;;100.18;37.88;;;;;;;-8.19;100.00;101271.06;1647480;86;28408;-89
2022/01/23 07:42:11;;;;;;;100.00;39.95;;;;;;;-8.06;100.00;101277.13;1648131;86;21095;-87
2022/01/23 07:44:57;;;;;;;81.57;33.40;;;;;;;-7.93;100.00;101290.37;1670222;85;21016;-87
2022/01/23 07:47:44;;;;;;;66.12;30.70;;;;;;;-7.87;100.00;101288.30;1670476;85;21024;-88
2022/01/23 07:50:21;;;;;;;82.35;37.83;;;;;;;-7.73;100.00;101297.32;1669351;85;21153;-87
2022/01/23 07:53:06;;;;;;;71.82;33.10;;;;;;;-7.63;100.00;101305.02;1669350;85;21091;-88
2022/01/23 07:55:39;;;;;;;162.77;58.58;;;;;;;-7.63;100.00;101301.23;1671213;85;21667;-87
2022/01/23 07:58:15;;;;;;;166.12;66.57;;;;;;;-7.55;100.00;101286.55;1669182;84;21494;-85
2022/01/23 08:00:45;;;;;;;142.60;61.00;;;;;;;-7.52;100.00;101287.42;1673326;85;21101;-88
2022/01/23 08:03:12;;;;;;;105.03;47.23;;;;;;;-7.44;100.00;101295.11;1675090;84;21125;-86
2022/01/23 08:05:50;;;;;;;81.50;41.13;;;;;;;-7.34;100.00;101293.11;1663990;83;21091;-88
2022/01/23 08:08:22;;;;;;;81.82;37.95;;;;;;;-7.25;100.00;101292.77;1665527;85;21047;-87
2022/01/23 08:11:00;;;;;;;70.32;38.35;;;;;;;-7.19;100.00;101292.39;1643302;85;21106;-87
2022/01/23 08:13:29;;;;;;;74.85;34.35;;;;;;;-7.11;100.00;101295.40;1670186;85;21027;-87
2022/01/23 08:15:56;;;;;;;69.47;33.53;;;;;;;-7.04;100.00;101303.08;1668930;85;21151;-86
2022/01/23 08:18:23;;;;;;;65.80;33.30;;;;;;;-6.94;100.00;101309.49;1644899;85;21062;-88
2022/01/23 08:20:50;;;;;;;88.90;42.25;;;;;;;-6.83;100.00;101307.87;1669320;85;21063;-90
2022/01/23 08:23:18;;;;;;;81.05;39.48;;;;;;;-6.77;100.00;101310.45;1669726;85;21908;-89
2022/01/23 08:25:46;;;;;;;89.22;42.80;;;;;;;-6.70;100.00;101305.89;1670208;85;21050;-89
2022/01/23 08:28:14;;;;;;;87.88;39.10;;;;;;;-6.56;100.00;101307.23;1644072;85;21261;-87
2022/01/23 08:30:42;;;;;;;85.55;41.98;;;;;;;-6.43;100.00;101300.55;1668472;85;21015;-86
2022/01/23 08:33:09;;;;;;;82.00;41.40;;;;;;;-6.25;100.00;101297.70;1669001;85;21039;-88
2022/01/23 08:35:36;;;;;;;83.75;42.08;;;;;;;-6.16;100.00;101299.42;1644574;85;21036;-87
2022/01/23 08:38:03;;;;;;;99.25;46.00;;;;;;;-6.14;100.00;101297.36;1622373;85;21557;-87
2022/01/23 08:43:15;;;;;;;102.30;45.12;;;;;;;-5.94;100.00;101302.89;1669543;85;21055;-87
2022/01/23 08:45:43;;;;;;;89.90;45.28;;;;;;;-5.80;100.00;101306.32;1668729;85;26520;-90
2022/01/23 08:48:10;;;;;;;91.28;42.98;;;;;;;-5.62;100.00;101305.96;1668680;85;21066;-88
2022/01/23 08:50:39;;;;;;;87.22;40.80;;;;;;;-5.52;100.00;101304.29;1669282;85;21124;-87
2022/01/23 08:53:06;;;;;;;88.40;42.75;;;;;;;-5.36;100.00;101306.45;1669032;85;21166;-88
2022/01/23 08:55:33;;;;;;;84.83;43.52;;;;;;;-5.22;100.00;101313.67;1656905;85;21058;-87
2022/01/23 08:58:02;;;;;;;86.87;44.18;;;;;;;-5.09;100.00;101319.17;1657578;85;21011;-88
2022/01/23 09:00:31;;;;;;;82.25;41.28;;;;;;;-4.98;100.00;101315.81;1634582;86;21541;-87
2022/01/23 09:02:58;;;;;;;76.40;40.33;;;;;;;-4.93;100.00;101315.41;1639274;85;21132;-87
2022/01/23 09:05:27;;;;;;;81.50;41.98;;;;;;;-4.81;100.00;101314.56;1676631;83;21089;-87
2022/01/23 09:07:55;;;;;;;82.40;43.15;;;;;;;-4.71;100.00;101311.14;1684066;84;21004;-87
2022/01/23 09:10:28;;;;;;;80.75;39.55;;;;;;;-4.65;100.00;101316.66;1642481;84;21212;-88
2022/01/23 09:13:07;;;;;;;68.28;37.80;;;;;;;-4.58;100.00;101309.45;1641251;84;21057;-88
2022/01/23 09:15:30;;;;;;;73.78;40.45;;;;;;;-4.47;100.00;101305.61;1681127;83;21749;-87
2022/01/23 09:17:56;;;;;;;76.35;37.90;;;;;;;-4.37;100.00;101310.28;1684410;83;21935;-88
2022/01/23 09:20:23;;;;;;;74.15;38.60;;;;;;;-4.30;100.00;101305.16;1660715;83;21069;-88
2022/01/23 09:22:50;;;;;;;385.88;185.48;;;;;;;-4.17;100.00;101301.33;1687518;83;21085;-86
2022/01/23 09:25:18;;;;;;;486.40;200.15;;;;;;;-4.02;100.00;101299.14;1686332;83;21627;-87
2022/01/23 09:27:46;;;;;;;94.80;47.55;;;;;;;-3.90;100.00;101301.66;1639717;85;21540;-87
2022/01/23 09:30:19;;;;;;;88.47;42.23;;;;;;;-3.84;100.00;101306.71;1616083;86;21118;-88
2022/01/23 09:32:48;;;;;;;60.90;33.80;;;;;;;-3.82;100.00;101315.20;1636506;86;21560;-88
2022/01/23 09:35:17;;;;;;;56.42;30.68;;;;;;;-3.72;100.00;101326.17;1660543;85;21078;-89
2022/01/23 09:37:45;;;;;;;53.15;28.60;;;;;;;-3.62;100.00;101333.34;1683891;84;21560;-87
2022/01/23 09:40:14;;;;;;;54.60;30.88;;;;;;;-3.49;100.00;101340.08;1656725;84;21067;-88
2022/01/23 09:42:52;;;;;;;54.60;29.95;;;;;;;-3.33;100.00;101342.55;1660696;84;22567;-86
2022/01/23 09:45:20;;;;;;;50.92;28.05;;;;;;;-3.19;100.00;101343.30;1640942;85;21039;-86
2022/01/23 09:47:47;;;;;;;48.83;26.48;;;;;;;-3.10;100.00;101351.74;1691472;82;21053;-88
2022/01/23 09:50:16;;;;;;;49.03;29.02;;;;;;;-2.99;100.00;101355.48;1692669;83;21082;-87
2022/01/23 09:52:45;;;;;;;57.40;31.60;;;;;;;-2.90;100.00;101360.09;1695309;83;21046;-87
2022/01/23 09:55:13;;;;;;;60.65;32.95;;;;;;;-2.81;100.00;101357.91;1685566;85;21148;-86
2022/01/23 09:57:45;;;;;;;48.98;30.25;;;;;;;-2.74;100.00;101362.52;1654570;85;21059;-86
2022/01/23 10:00:16;;;;;;;51.28;31.02;;;;;;;-2.69;100.00;101356.97;1607923;86;21039;-86
2022/01/23 10:02:46;;;;;;;51.65;31.68;;;;;;;-2.58;100.00;101356.44;1685177;84;21050;-87
2022/01/23 10:05:13;;;;;;;60.98;33.83;;;;;;;-2.46;100.00;101352.09;1665414;85;21517;-88
2022/01/23 10:07:42;;;;;;;54.85;32.83;;;;;;;-2.41;100.00;101345.23;1638357;86;21859;-86
2022/01/23 10:10:21;;;;;;;56.60;30.40;;;;;;;-2.51;100.00;101343.62;1678693;84;21045;-86
2022/01/23 10:12:55;;;;;;;62.10;32.73;;;;;;;-2.63;100.00;101337.79;1657244;85;21097;-87
2022/01/23 10:15:31;;;;;;;54.13;30.95;;;;;;;-2.77;100.00;101334.08;1667966;84;21023;-88
2022/01/23 10:18:00;;;;;;;61.53;31.62;;;;;;;-2.89;100.00;101340.55;1642446;85;21134;-86
2022/01/23 10:20:29;;;;;;;74.25;36.90;;;;;;;-2.90;100.00;101332.05;1655006;85;21205;-88
2022/01/23 10:22:57;;;;;;;72.87;37.63;;;;;;;-2.78;100.00;101326.00;1662266;85;21053;-91
2022/01/23 10:25:31;;;;;;;56.30;32.42;;;;;;;-2.68;100.00;101326.77;1684453;83;21019;-89
2022/01/23 10:28:11;;;;;;;56.13;31.62;;;;;;;-2.63;100.00;101331.83;1650923;84;21607;-90
2022/01/23 10:30:44;;;;;;;52.60;30.40;;;;;;;-2.61;100.00;101332.25;1621266;87;21046;-89
2022/01/23 10:33:22;;;;;;;67.50;32.85;;;;;;;-2.62;100.00;101326.73;1682718;83;21833;-89
2022/01/23 10:36:11;;;;;;;59.63;32.65;;;;;;;-2.64;100.00;101330.99;1683661;85;21113;-88
2022/01/23 10:38:59;;;;;;;57.55;31.33;;;;;;;-2.58;100.00;101334.76;1660883;84;21084;-87
2022/01/23 10:41:45;;;;;;;49.93;29.63;;;;;;;-2.55;100.00;101329.64;1655079;85;21101;-87
2022/01/23 10:50:04;;;;;;;61.15;28.25;;;;;;;-2.60;100.00;101336.91;1661650;84;21571;-86
2022/01/23 10:52:40;;;;;;;58.17;34.23;;;;;;;-2.63;100.00;101336.92;1684397;83;21011;-87
2022/01/23 10:55:15;;;;;;;60.08;30.77;;;;;;;-2.65;100.00;101341.22;1683905;84;21082;-86
2022/01/23 10:57:46;;;;;;;53.05;27.40;;;;;;;-2.65;100.00;101340.77;1682286;84;22244;-86
2022/01/23 11:00:30;;;;;;;51.25;30.17;;;;;;;-2.68;100.00;101350.98;1685740;83;21195;-85
2022/01/23 11:03:03;;;;;;;82.53;38.30;;;;;;;-2.67;100.00;101346.30;1705623;83;21090;-86
2022/01/23 11:05:38;;;;;;;50.23;27.75;;;;;;;-2.59;100.00;101341.98;1679815;83;21053;-85
2022/01/23 11:08:30;;;;;;;53.65;30.92;;;;;;;-2.48;100.00;101347.44;1648633;85;21039;-88
2022/01/23 11:11:05;;;;;;;56.10;34.10;;;;;;;-2.42;100.00;101352.47;1666473;83;21594;-87
2022/01/23 11:19:39;;;;;;;39.85;23.50;;;;;;;-2.28;100.00;101353.18;1655755;84;20975;-86
2022/01/23 11:22:05;;;;;;;41.35;23.07;;;;;;;-2.24;100.00;101358.68;1623408;87;21683;-87
2022/01/23 11:24:42;;;;;;;46.80;24.92;;;;;;;-2.19;100.00;101359.05;1655566;85;21110;-86
2022/01/23 11:27:09;;;;;;;46.10;25.45;;;;;;;-2.15;100.00;101363.28;1655322;85;21160;-87
2022/01/23 11:30:02;;;;;;;41.83;22.55;;;;;;;-2.12;100.00;101365.78;1660283;84;21035;-88
2022/01/23 11:32:34;;;;;;;;;;;;;;;-2.14;100.00;101365.80;1658596;86;21039;-87
2022/01/23 11:35:06;;;;;;;31.02;17.85;;;;;;;-2.10;100.00;101378.11;1661464;84;20223;-87
2022/01/23 11:37:31;;;;;;;31.07;18.40;;;;;;;-2.08;100.00;101377.66;1681283;83;21039;-88
2022/01/23 11:40:05;;;;;;;28.05;17.52;;;;;;;-2.09;100.00;101378.11;1665200;84;21069;-87
2022/01/23 11:53:48;;;;;;;20.57;13.80;;;;;;;-2.00;100.00;101394.19;1694833;84;21143;-88
2022/01/23 11:56:33;;;;;;;19.70;12.85;;;;;;;-2.01;100.00;101394.61;1630882;84;21510;-88
2022/01/23 11:59:23;;;;;;;21.93;13.90;;;;;;;-2.00;100.00;101401.41;1686649;84;21062;-88
2022/01/23 12:02:14;;;;;;;23.35;14.18;;;;;;;-2.07;100.00;101398.50;1669601;82;21153;-88
2022/01/23 12:04:46;;;;;;;24.90;13.85;;;;;;;-2.13;100.00;101407.50;1669470;85;21445;-88
2022/01/23 12:07:20;;;;;;;24.67;14.75;;;;;;;-2.14;100.00;101403.25;1641172;85;21413;-88
2022/01/23 12:10:15;;;;;;;23.62;13.10;;;;;;;-2.14;100.00;101401.98;1648604;85;21039;-87
2022/01/23 12:12:49;;;;;;;20.68;13.30;;;;;;;-2.15;100.00;101402.39;1612095;87;21080;-88
2022/01/23 12:18:21;;;;;;;22.55;13.70;;;;;;;-2.17;100.00;101404.55;1618904;87;21426;-86
2022/01/23 12:20:52;;;;;;;22.62;13.48;;;;;;;-2.17;100.00;101409.66;1642975;85;21191;-86
2022/01/23 12:23:20;;;;;;;22.10;13.33;;;;;;;-2.20;100.00;101410.53;1639728;86;20996;-84
2022/01/23 12:25:55;;;;;;;25.17;13.98;;;;;;;-2.23;100.00;101420.34;1657229;84;21556;-87
2022/01/23 12:28:28;;;;;;;25.30;14.28;;;;;;;-2.25;100.00;101423.33;1656086;84;21058;-86
2022/01/23 12:31:16;;;;;;;23.73;14.28;;;;;;;-2.30;100.00;101416.16;1683829;83;21097;-87
2022/01/23 12:33:50;;;;;;;23.62;13.88;;;;;;;-2.31;100.00;101411.05;1660053;84;21155;-87
2022/01/23 12:36:23;;;;;;;23.18;13.53;;;;;;;-2.35;100.00;101405.56;1631590;86;21236;-87
2022/01/23 12:39:00;;;;;;;27.73;14.43;;;;;;;-2.38;100.00;101406.45;1655646;85;21070;-88
2022/01/23 12:41:37;;;;;;;22.10;14.00;;;;;;;-2.40;100.00;101406.44;1629396;85;21019;-88
2022/01/23 12:44:27;;;;;;;20.72;13.25;;;;;;;-2.39;100.00;101418.78;1648431;84;22067;-89
2022/01/23 12:46:59;;;;;;;20.62;13.35;;;;;;;-2.39;100.00;101420.06;1682446;85;21198;-88
2022/01/23 12:49:37;;;;;;;23.87;13.80;;;;;;;-2.42;100.00;101424.77;1674622;85;21591;-88
2022/01/23 12:52:12;;;;;;;22.48;13.32;;;;;;;-2.44;100.00;101428.16;1662909;84;22207;-88
2022/01/23 12:54:57;;;;;;;24.70;14.18;;;;;;;-2.46;100.00;101435.00;1631472;85;21073;-88
2022/01/23 12:57:40;;;;;;;25.40;15.98;;;;;;;-2.49;100.00;101429.91;1657727;85;21094;-88
2022/01/23 13:00:15;;;;;;;27.85;15.95;;;;;;;-2.56;100.00;101429.96;1671677;85;21177;-89
2022/01/23 13:02:48;;;;;;;30.95;16.23;;;;;;;-2.61;100.00;101432.12;1657405;84;21536;-89
2022/01/23 13:05:18;;;;;;;26.62;16.48;;;;;;;-2.64;100.00;101430.45;1659024;84;21051;-88
2022/01/23 13:08:02;;;;;;;26.45;16.57;;;;;;;-2.68;100.00;101436.84;1655670;84;21070;-88
2022/01/23 13:10:30;;;;;;;27.42;17.52;;;;;;;-2.71;100.00;101442.83;1636384;85;21205;-88
2022/01/23 13:12:55;;;;;;;29.52;16.85;;;;;;;-2.74;100.00;101435.18;1658778;84;21857;-89
2022/01/23 13:27:25;;;;;;;42.10;23.10;;;;;;;-2.94;100.00;101441.27;1638952;86;21470;-87
2022/01/23 13:32:31;;;;;;;32.88;18.65;;;;;;;-2.99;100.00;101437.05;1685268;83;21449;-88
2022/01/23 13:35:10;;;;;;;32.33;19.98;;;;;;;-3.02;100.00;101437.47;1671324;83;21080;-87
2022/01/23 13:37:34;;;;;;;37.03;20.05;;;;;;;-3.04;100.00;101446.82;1659774;83;21113;-87
2022/01/23 13:40:09;;;;;;;42.43;27.17;;;;;;;-3.06;100.00;101447.28;1685095;83;21696;-88
2022/01/23 13:48:00;;;;;;;30.95;18.25;;;;;;;-3.05;100.00;101451.52;1615314;85;21055;-87
2022/01/23 13:49:52;;;;;;;34.35;18.77;;;;;;;-3.06;100.00;101460.43;1613931;86;21625;-88
2022/01/23 14:00:00;;;;;;;29.70;18.10;;;;;;;-3.13;100.00;101468.96;1655082;85;21035;-88
2022/01/23 14:02:33;;;;;;;34.10;19.57;;;;;;;-3.16;100.00;101466.00;1632980;85;21574;-88
2022/01/23 14:05:18;;;;;;;30.72;19.85;;;;;;;-3.17;100.00;101471.95;1665261;83;21396;-87
2022/01/23 14:07:52;;;;;;;30.97;19.90;;;;;;;-3.19;100.00;101473.65;1698659;82;22030;-88
2022/01/23 14:10:25;;;;;;;28.42;18.02;;;;;;;-3.21;100.00;101474.94;1655529;84;21019;-87
2022/01/23 14:12:57;;;;;;;36.95;21.02;;;;;;;-3.23;100.00;101471.54;1691640;83;21121;-88
2022/01/23 14:15:30;;;;;;;31.80;19.37;;;;;;;-3.23;100.00;101466.45;1701432;83;21125;-88
2022/01/23 14:18:09;;;;;;;35.00;20.60;;;;;;;-3.24;100.00;101463.91;1699502;83;21102;-88
2022/01/23 14:20:45;;;;;;;25.27;16.30;;;;;;;-3.26;100.00;101470.30;1689737;83;21760;-86
2022/01/23 14:23:20;;;;;;;32.48;18.75;;;;;;;-3.28;100.00;101472.00;1673874;84;21793;-87
2022/01/23 14:25:52;;;;;;;29.12;18.40;;;;;;;-3.30;100.00;101467.77;1655791;85;21111;-87